Time;durP1;ratioP1;P1;durP2;ratioP2;P2;SDS_P1;SDS_P2;PMS_P1;PMS_P2;Temp;Humidity;BMP_temperature;BMP_pressure;BME280_temperature;BME280_humidity;BME280_pressure;Samples;Min_cycle;Max_cycle;Signal;HPM_P1;HPM_P2
2022/03/27 00:01:19;;;;;;;35.30;14.15;;;;;;;;;;5033722;28;20029;-43
2022/03/27 00:03:45;;;;;;;37.40;14.75;;;;;;;;;;5033477;28;20055;-44
2022/03/27 00:06:10;;;;;;;34.10;14.57;;;;;;;;;;5033507;28;20025;-44
2022/03/27 00:08:36;;;;;;;29.52;13.38;;;;;;;;;;5033621;28;20380;-45
2022/03/27 00:13:45;;;;;;;36.25;14.18;;;;;;;;;;5033399;28;20525;-43
2022/03/27 00:16:10;;;;;;;34.72;15.35;;;;;;;;;;5033422;28;20025;-44
2022/03/27 00:18:36;;;;;;;29.02;14.70;;;;;;;;;;5033252;28;20452;-44
2022/03/27 00:21:02;;;;;;;30.60;13.65;;;;;;;;;;5033321;28;20022;-44
2022/03/27 00:23:28;;;;;;;31.67;14.15;;;;;;;;;;5033022;28;20025;-45
2022/03/27 00:25:53;;;;;;;34.38;13.48;;;;;;;;;;5033287;28;20431;-43
2022/03/27 00:28:19;;;;;;;38.92;13.27;;;;;;;;;;5033404;28;20189;-44
2022/03/27 00:30:44;;;;;;;39.67;15.73;;;;;;;;;;5033097;28;20060;-44
2022/03/27 00:33:10;;;;;;;33.38;14.07;;;;;;;;;;5032851;28;20072;-46
2022/03/27 00:35:36;;;;;;;36.13;15.32;;;;;;;;;;5032983;28;20033;-44
2022/03/27 00:38:01;;;;;;;34.70;14.88;;;;;;;;;;5033238;28;20017;-44
2022/03/27 00:40:26;;;;;;;32.95;15.35;;;;;;;;;;5031825;28;20029;-44
2022/03/27 00:42:52;;;;;;;38.70;15.75;;;;;;;;;;5032982;28;20026;-43
2022/03/27 00:45:17;;;;;;;36.55;14.57;;;;;;;;;;5033128;28;20029;-43
2022/03/27 00:47:44;;;;;;;28.65;14.27;;;;;;;;;;5032986;28;20029;-42
2022/03/27 00:50:09;;;;;;;34.40;15.00;;;;;;;;;;5032806;28;20037;-44
2022/03/27 00:52:34;;;;;;;31.15;15.18;;;;;;;;;;5032453;28;20054;-45
2022/03/27 00:55:00;;;;;;;36.10;15.32;;;;;;;;;;5032853;28;20025;-43
2022/03/27 00:57:26;;;;;;;30.45;13.60;;;;;;;;;;5033008;28;20076;-43
2022/03/27 00:59:51;;;;;;;35.22;14.50;;;;;;;;;;5033092;28;20362;-44
2022/03/27 01:02:18;;;;;;;36.63;14.75;;;;;;;;;;5032684;28;20487;-43
2022/03/27 01:04:44;;;;;;;39.38;15.55;;;;;;;;;;5032567;28;20021;-43
2022/03/27 01:07:13;;;;;;;36.92;15.77;;;;;;;;;;5032950;28;20030;-43
2022/03/27 01:09:40;;;;;;;33.10;14.47;;;;;;;;;;5032826;28;20017;-43
2022/03/27 01:12:17;;;;;;;38.35;14.43;;;;;;;;;;5032679;28;20507;-43
2022/03/27 01:14:44;;;;;;;37.78;14.35;;;;;;;;;;5032614;28;20380;-44
2022/03/27 01:17:10;;;;;;;40.55;15.00;;;;;;;;;;5032386;28;20021;-44
2022/03/27 01:19:46;;;;;;;42.83;14.80;;;;;;;;;;5032776;28;20511;-45
2022/03/27 01:22:12;;;;;;;34.53;15.00;;;;;;;;;;5031286;28;20035;-44
2022/03/27 01:24:37;;;;;;;33.05;15.05;;;;;;;;;;5032870;28;20029;-45
2022/03/27 01:27:03;;;;;;;31.23;14.82;;;;;;;;;;5032581;28;20029;-45
2022/03/27 01:29:28;;;;;;;39.17;15.15;;;;;;;;;;5032393;28;20025;-42
2022/03/27 01:31:54;;;;;;;32.03;14.10;;;;;;;;;;5032223;28;20048;-46
2022/03/27 01:34:20;;;;;;;34.05;13.77;;;;;;;;;;5032611;28;20112;-45
2022/03/27 01:36:45;;;;;;;36.42;14.63;;;;;;;;;;5036025;28;20354;-44
2022/03/27 01:39:11;;;;;;;31.50;13.07;;;;;;;;;;5036340;28;20484;-43
2022/03/27 01:41:37;;;;;;;37.63;14.23;;;;;;;;;;5036689;28;20036;-44
2022/03/27 01:44:03;;;;;;;43.65;15.30;;;;;;;;;;5035525;28;20021;-44
2022/03/27 01:46:33;;;;;;;36.40;15.18;;;;;;;;;;5036186;28;20037;-43
2022/03/27 01:49:02;;;;;;;35.88;15.57;;;;;;;;;;5036296;28;20484;-42
2022/03/27 01:51:28;;;;;;;34.40;14.93;;;;;;;;;;5036038;28;20109;-43
2022/03/27 01:53:54;;;;;;;35.90;13.85;;;;;;;;;;5035784;28;20187;-43
2022/03/27 01:56:19;;;;;;;35.30;15.30;;;;;;;;;;5036061;28;20025;-42
2022/03/27 01:58:44;;;;;;;34.72;14.20;;;;;;;;;;5036459;28;20033;-43
2022/03/27 02:01:10;;;;;;;30.17;13.68;;;;;;;;;;5035695;28;20030;-43
2022/03/27 02:03:36;;;;;;;34.72;14.75;;;;;;;;;;5035792;28;20534;-49
2022/03/27 02:06:03;;;;;;;32.78;14.27;;;;;;;;;;5036232;28;20018;-46
2022/03/27 02:08:29;;;;;;;30.25;13.52;;;;;;;;;;5034532;28;20376;-42
2022/03/27 02:10:54;;;;;;;39.20;14.50;;;;;;;;;;5035806;28;20025;-44
2022/03/27 02:13:21;;;;;;;33.42;14.57;;;;;;;;;;5035610;28;20022;-44
2022/03/27 02:15:47;;;;;;;31.02;13.43;;;;;;;;;;5035284;28;20025;-44
2022/03/27 02:18:13;;;;;;;33.13;13.68;;;;;;;;;;5035884;28;20014;-43
2022/03/27 02:20:39;;;;;;;36.60;14.18;;;;;;;;;;5034366;28;20026;-46
2022/03/27 02:23:06;;;;;;;33.63;13.77;;;;;;;;;;5034397;28;20052;-42
2022/03/27 02:25:31;;;;;;;33.47;14.70;;;;;;;;;;5035599;28;20372;-44
2022/03/27 02:27:57;;;;;;;32.13;14.30;;;;;;;;;;5035180;28;20025;-44
2022/03/27 02:30:22;;;;;;;32.22;14.65;;;;;;;;;;5033882;28;20033;-45
2022/03/27 02:32:47;;;;;;;34.45;14.68;;;;;;;;;;5035190;28;20109;-43
2022/03/27 02:35:13;;;;;;;32.10;14.32;;;;;;;;;;5035329;28;20026;-43
2022/03/27 02:37:39;;;;;;;37.53;16.00;;;;;;;;;;5035316;28;20027;-41
2022/03/27 02:40:04;;;;;;;37.88;14.02;;;;;;;;;;5034966;28;20049;-42
2022/03/27 02:42:30;;;;;;;37.40;14.98;;;;;;;;;;5035086;28;20096;-41
2022/03/27 02:44:55;;;;;;;36.38;14.45;;;;;;;;;;5035123;28;20030;-42
2022/03/27 02:47:20;;;;;;;32.05;15.30;;;;;;;;;;5034700;28;20072;-43
2022/03/27 02:49:46;;;;;;;29.13;13.63;;;;;;;;;;5035153;28;20075;-43
2022/03/27 02:52:11;;;;;;;35.72;14.88;;;;;;;;;;5034934;28;20029;-43
2022/03/27 02:54:36;;;;;;;37.85;14.95;;;;;;;;;;5035055;28;20473;-43
2022/03/27 02:57:02;;;;;;;35.25;14.77;;;;;;;;;;5034787;28;20099;-43
2022/03/27 02:59:27;;;;;;;34.78;15.77;;;;;;;;;;5034789;28;20045;-42
2022/03/27 03:01:53;;;;;;;30.98;15.02;;;;;;;;;;5034723;28;20036;-42
2022/03/27 03:04:18;;;;;;;42.88;16.02;;;;;;;;;;5034714;28;20036;-42
2022/03/27 03:06:44;;;;;;;35.42;14.80;;;;;;;;;;5034757;28;20506;-44
2022/03/27 03:09:10;;;;;;;40.95;14.55;;;;;;;;;;5034638;28;20437;-42
2022/03/27 03:11:35;;;;;;;43.03;15.63;;;;;;;;;;5034663;28;20496;-42
2022/03/27 03:14:01;;;;;;;38.45;14.70;;;;;;;;;;5034477;28;20033;-45
2022/03/27 03:16:26;;;;;;;36.72;15.65;;;;;;;;;;5033101;28;20089;-43
2022/03/27 03:18:52;;;;;;;38.88;15.32;;;;;;;;;;5034637;28;20029;-42
2022/03/27 03:21:17;;;;;;;35.42;13.93;;;;;;;;;;5034357;28;20099;-42
2022/03/27 03:23:42;;;;;;;34.30;13.80;;;;;;;;;;5034429;28;20033;-41
2022/03/27 03:26:09;;;;;;;35.50;14.77;;;;;;;;;;5034269;28;20022;-42
2022/03/27 03:28:34;;;;;;;31.45;14.30;;;;;;;;;;5034126;28;20048;-42
2022/03/27 03:31:00;;;;;;;30.08;14.07;;;;;;;;;;5033934;28;20021;-43
2022/03/27 03:33:26;;;;;;;34.45;14.85;;;;;;;;;;5034282;28;20021;-44
2022/03/27 03:35:51;;;;;;;40.97;14.98;;;;;;;;;;5034423;28;20025;-44
2022/03/27 03:38:17;;;;;;;37.10;15.57;;;;;;;;;;5034140;28;20018;-43
2022/03/27 03:40:42;;;;;;;37.28;15.05;;;;;;;;;;5033979;28;20025;-42
2022/03/27 03:43:09;;;;;;;40.85;15.45;;;;;;;;;;5034313;28;20541;-43
2022/03/27 03:45:35;;;;;;;38.30;16.88;;;;;;;;;;5033827;28;20100;-42
2022/03/27 03:48:00;;;;;;;35.00;14.50;;;;;;;;;;5034175;28;20034;-43
2022/03/27 03:50:27;;;;;;;40.03;14.23;;;;;;;;;;5033849;28;20022;-42
2022/03/27 03:52:52;;;;;;;33.42;14.07;;;;;;;;;;5033443;28;20057;-42
2022/03/27 03:55:18;;;;;;;42.30;16.13;;;;;;;;;;5033807;28;20026;-43
2022/03/27 03:57:43;;;;;;;33.08;13.63;;;;;;;;;;5033156;28;20014;-42
2022/03/27 04:00:09;;;;;;;35.22;15.32;;;;;;;;;;5032181;28;20025;-44
2022/03/27 04:02:34;;;;;;;33.03;14.35;;;;;;;;;;5032499;28;20074;-43
2022/03/27 04:05:01;;;;;;;32.22;13.18;;;;;;;;;;5033404;28;20083;-43
2022/03/27 04:07:26;;;;;;;38.38;14.55;;;;;;;;;;5033675;28;20067;-45
2022/03/27 04:09:51;;;;;;;37.15;13.65;;;;;;;;;;5033823;28;20408;-44
2022/03/27 04:12:17;;;;;;;35.78;15.52;;;;;;;;;;5033510;28;20408;-43
2022/03/27 04:14:43;;;;;;;45.97;16.55;;;;;;;;;;5033381;28;20040;-44
2022/03/27 04:17:09;;;;;;;45.05;15.25;;;;;;;;;;5033253;28;20988;-43
2022/03/27 04:19:34;;;;;;;36.63;14.32;;;;;;;;;;5033575;28;20025;-44
2022/03/27 04:22:00;;;;;;;35.50;14.35;;;;;;;;;;5033423;28;20104;-43
2022/03/27 04:24:25;;;;;;;33.05;14.18;;;;;;;;;;5033173;28;20439;-43
2022/03/27 04:26:50;;;;;;;29.20;13.27;;;;;;;;;;5033262;28;20031;-43
2022/03/27 04:29:16;;;;;;;29.25;12.30;;;;;;;;;;5033089;28;20511;-43
2022/03/27 04:31:41;;;;;;;28.30;13.25;;;;;;;;;;5033068;28;20065;-45
2022/03/27 04:34:07;;;;;;;44.70;16.10;;;;;;;;;;5033244;28;20100;-42
2022/03/27 04:36:33;;;;;;;46.80;14.02;;;;;;;;;;5033372;28;20160;-44
2022/03/27 04:38:58;;;;;;;34.15;13.55;;;;;;;;;;5033036;28;20461;-44
2022/03/27 04:41:24;;;;;;;30.77;12.68;;;;;;;;;;5032993;28;20026;-43
2022/03/27 04:43:49;;;;;;;29.20;12.43;;;;;;;;;;5033175;28;20120;-42
2022/03/27 04:46:16;;;;;;;29.38;12.48;;;;;;;;;;5032839;28;20032;-44
2022/03/27 04:48:41;;;;;;;29.55;14.02;;;;;;;;;;5033297;28;20044;-45
2022/03/27 04:51:07;;;;;;;38.72;14.20;;;;;;;;;;5033076;28;20448;-45
2022/03/27 04:53:32;;;;;;;32.95;14.15;;;;;;;;;;5032716;28;20424;-44
2022/03/27 04:55:57;;;;;;;33.53;13.48;;;;;;;;;;5031555;28;20018;-45
2022/03/27 04:58:24;;;;;;;43.58;13.82;;;;;;;;;;5032878;28;20100;-43
2022/03/27 05:00:49;;;;;;;35.15;13.02;;;;;;;;;;5032625;28;20045;-44
2022/03/27 05:03:15;;;;;;;32.60;13.00;;;;;;;;;;5032877;28;20484;-44
2022/03/27 05:05:40;;;;;;;25.98;10.73;;;;;;;;;;5033185;28;20017;-44
2022/03/27 05:08:06;;;;;;;20.95;10.45;;;;;;;;;;5032816;28;20022;-43
2022/03/27 05:10:31;;;;;;;25.02;10.45;;;;;;;;;;5036026;28;20464;-43
2022/03/27 05:12:57;;;;;;;28.13;10.05;;;;;;;;;;5036789;28;20385;-43
2022/03/27 05:15:22;;;;;;;38.85;11.70;;;;;;;;;;5036628;28;20025;-44
2022/03/27 05:17:58;;;;;;;26.02;9.65;;;;;;;;;;5036644;28;20045;-45
2022/03/27 05:20:24;;;;;;;25.98;10.80;;;;;;;;;;5035636;28;20424;-44
2022/03/27 05:22:49;;;;;;;23.05;10.15;;;;;;;;;;5036403;28;20549;-44
2022/03/27 05:25:15;;;;;;;27.42;10.73;;;;;;;;;;5036688;28;20112;-44
2022/03/27 05:27:43;;;;;;;22.40;10.13;;;;;;;;;;5036404;28;20026;-44
2022/03/27 05:30:09;;;;;;;29.08;11.38;;;;;;;;;;5035061;28;20018;-42
2022/03/27 05:32:35;;;;;;;20.95;9.13;;;;;;;;;;5036641;28;20044;-43
2022/03/27 05:35:01;;;;;;;18.38;9.20;;;;;;;;;;5036448;28;20025;-44
2022/03/27 05:37:26;;;;;;;21.90;9.38;;;;;;;;;;5036581;28;20464;-43
2022/03/27 05:39:51;;;;;;;17.10;8.55;;;;;;;;;;5036294;28;20026;-43
2022/03/27 05:42:17;;;;;;;20.73;9.00;;;;;;;;;;5036525;28;20052;-42
2022/03/27 05:44:42;;;;;;;22.65;8.90;;;;;;;;;;5036236;28;20116;-44
2022/03/27 05:47:08;;;;;;;25.13;8.80;;;;;;;;;;5036015;28;20437;-41
2022/03/27 05:49:33;;;;;;;14.90;8.68;;;;;;;;;;5035088;28;20014;-42
2022/03/27 05:51:58;;;;;;;23.08;8.90;;;;;;;;;;5036053;28;20500;-42
2022/03/27 05:54:23;;;;;;;15.43;8.50;;;;;;;;;;5035912;28;20046;-43
2022/03/27 05:56:49;;;;;;;12.40;7.35;;;;;;;;;;5035993;28;20438;-42
2022/03/27 05:59:14;;;;;;;17.00;7.95;;;;;;;;;;5035751;28;20116;-42
2022/03/27 06:01:40;;;;;;;15.73;8.35;;;;;;;;;;5035812;28;20108;-42
2022/03/27 06:04:05;;;;;;;18.33;7.88;;;;;;;;;;5035913;28;20041;-41
2022/03/27 06:06:30;;;;;;;18.23;8.77;;;;;;;;;;5035673;28;20021;-41
2022/03/27 06:08:57;;;;;;;23.15;8.30;;;;;;;;;;5035882;28;20024;-41
2022/03/27 06:11:23;;;;;;;20.75;9.02;;;;;;;;;;5035682;28;20044;-42
2022/03/27 06:13:48;;;;;;;22.30;7.95;;;;;;;;;;5035550;28;20147;-41
2022/03/27 06:16:13;;;;;;;17.73;8.10;;;;;;;;;;5035750;28;20100;-41
2022/03/27 06:18:39;;;;;;;20.75;8.73;;;;;;;;;;5035763;28;20014;-41
2022/03/27 06:21:04;;;;;;;20.23;7.93;;;;;;;;;;5034197;28;20017;-42
2022/03/27 06:23:30;;;;;;;15.77;8.07;;;;;;;;;;5035503;28;20088;-43
2022/03/27 06:25:55;;;;;;;13.63;8.55;;;;;;;;;;5035523;28;20025;-43
2022/03/27 06:28:20;;;;;;;14.10;8.20;;;;;;;;;;5035181;28;20025;-41
2022/03/27 06:30:46;;;;;;;16.73;7.63;;;;;;;;;;5035214;28;20028;-41
2022/03/27 06:33:13;;;;;;;19.17;8.02;;;;;;;;;;5035728;28;20530;-41
2022/03/27 06:35:38;;;;;;;13.82;7.43;;;;;;;;;;5035163;28;20028;-42
2022/03/27 06:38:03;;;;;;;19.50;7.70;;;;;;;;;;5035377;28;20022;-41
2022/03/27 06:40:29;;;;;;;14.73;7.18;;;;;;;;;;5035279;28;20070;-41
2022/03/27 06:42:54;;;;;;;17.45;7.28;;;;;;;;;;5034980;28;20177;-41
2022/03/27 06:45:20;;;;;;;19.90;7.75;;;;;;;;;;5034963;28;20075;-42
2022/03/27 06:47:46;;;;;;;13.00;7.93;;;;;;;;;;5034878;28;20017;-42
2022/03/27 06:50:12;;;;;;;15.13;7.57;;;;;;;;;;5035093;28;20431;-42
2022/03/27 06:52:37;;;;;;;17.70;7.57;;;;;;;;;;5034830;28;20389;-43
2022/03/27 06:55:04;;;;;;;14.32;7.82;;;;;;;;;;5035310;28;20025;-43
2022/03/27 06:57:29;;;;;;;14.25;7.43;;;;;;;;;;5035004;28;20021;-43
2022/03/27 07:05:22;;;;;;;14.38;7.10;;;;;;;;;;5034924;28;20040;-42
2022/03/27 07:07:48;;;;;;;15.80;7.20;;;;;;;;;;5034597;28;20376;-43
2022/03/27 07:10:13;;;;;;;13.15;7.63;;;;;;;;;;5034867;28;20382;-41
2022/03/27 07:12:39;;;;;;;12.48;7.63;;;;;;;;;;5034362;28;20575;-42
2022/03/27 07:15:05;;;;;;;14.20;7.82;;;;;;;;;;5034654;28;20087;-44
2022/03/27 07:17:30;;;;;;;14.45;8.30;;;;;;;;;;5034662;28;20083;-42
2022/03/27 07:19:56;;;;;;;12.50;7.13;;;;;;;;;;5034389;28;20029;-41
2022/03/27 07:22:21;;;;;;;16.70;7.40;;;;;;;;;;5034393;28;20057;-41
2022/03/27 07:24:47;;;;;;;14.65;7.97;;;;;;;;;;5034357;28;20033;-42
2022/03/27 07:27:12;;;;;;;16.52;8.43;;;;;;;;;;5032878;28;20021;-41
2022/03/27 07:29:38;;;;;;;13.07;7.28;;;;;;;;;;5034068;28;20372;-42
2022/03/27 07:32:07;;;;;;;15.00;7.60;;;;;;;;;;5033689;28;20022;-41
2022/03/27 07:34:33;;;;;;;14.05;6.88;;;;;;;;;;5033730;28;20033;-41
2022/03/27 07:36:58;;;;;;;18.65;8.52;;;;;;;;;;5034262;28;20036;-41
2022/03/27 07:39:23;;;;;;;15.02;7.78;;;;;;;;;;5033895;28;20465;-42
2022/03/27 07:41:48;;;;;;;18.88;8.40;;;;;;;;;;5033799;28;20028;-41
2022/03/27 07:44:14;;;;;;;14.63;7.32;;;;;;;;;;5033690;28;20061;-43
2022/03/27 07:46:39;;;;;;;14.52;6.65;;;;;;;;;;5034026;28;20175;-41
2022/03/27 07:49:06;;;;;;;14.30;7.22;;;;;;;;;;5034152;28;20028;-41
2022/03/27 07:51:32;;;;;;;12.80;7.55;;;;;;;;;;5033946;28;20026;-42
2022/03/27 07:53:57;;;;;;;12.02;7.18;;;;;;;;;;5034035;28;20469;-42
2022/03/27 07:56:22;;;;;;;17.80;7.60;;;;;;;;;;5033645;28;20021;-42
2022/03/27 07:58:48;;;;;;;15.45;7.80;;;;;;;;;;5033528;28;20251;-42
2022/03/27 08:01:15;;;;;;;12.48;7.95;;;;;;;;;;5033882;28;20020;-41
2022/03/27 08:03:40;;;;;;;13.40;6.80;;;;;;;;;;5033627;28;20037;-41
2022/03/27 08:06:06;;;;;;;15.98;8.43;;;;;;;;;;5032403;28;20083;-42
2022/03/27 08:08:32;;;;;;;24.42;8.23;;;;;;;;;;5033524;28;20021;-41
2022/03/27 08:10:57;;;;;;;13.57;7.50;;;;;;;;;;5033429;28;20021;-46
2022/03/27 08:13:22;;;;;;;13.30;7.33;;;;;;;;;;5033566;28;20022;-42
2022/03/27 08:15:48;;;;;;;19.92;7.68;;;;;;;;;;5033911;28;20622;-42
2022/03/27 08:18:13;;;;;;;15.05;7.82;;;;;;;;;;5033501;28;20045;-41
2022/03/27 08:20:39;;;;;;;13.15;7.65;;;;;;;;;;5033850;28;20025;-44
2022/03/27 08:23:04;;;;;;;22.90;7.88;;;;;;;;;;5033291;28;20041;-41
2022/03/27 08:28:14;;;;;;;13.50;7.32;;;;;;;;;;5033184;28;20029;-42
2022/03/27 08:30:39;;;;;;;42.00;8.55;;;;;;;;;;5033389;28;20022;-42
2022/03/27 08:33:05;;;;;;;17.10;7.40;;;;;;;;;;5033325;28;20028;-41
2022/03/27 08:35:30;;;;;;;17.17;6.93;;;;;;;;;;5033303;28;20065;-42
2022/03/27 08:37:55;;;;;;;14.27;6.90;;;;;;;;;;5033007;28;20021;-42
2022/03/27 08:40:22;;;;;;;15.02;7.55;;;;;;;;;;5032737;28;20063;-41
2022/03/27 08:42:48;;;;;;;23.20;7.03;;;;;;;;;;5033055;28;20388;-42
2022/03/27 08:45:13;;;;;;;9.90;6.60;;;;;;;;;;5032806;28;20017;-43
2022/03/27 08:47:39;;;;;;;10.35;6.95;;;;;;;;;;5033156;28;20437;-44
2022/03/27 08:50:14;;;;;;;20.67;7.22;;;;;;;;;;5032856;28;20100;-44
2022/03/27 08:52:40;;;;;;;13.35;7.22;;;;;;;;;;5032818;28;20483;-42
2022/03/27 08:55:25;;;;;;;13.63;7.50;;;;;;;;;;5032613;28;20602;-41
2022/03/27 08:57:53;;;;;;;13.25;6.97;;;;;;;;;;5032786;28;20073;-42
2022/03/27 09:00:19;;;;;;;15.77;7.57;;;;;;;;;;5032969;28;20022;-42
2022/03/27 09:02:45;;;;;;;15.75;7.93;;;;;;;;;;5032761;28;20431;-41
2022/03/27 09:05:10;;;;;;;15.88;7.03;;;;;;;;;;5032657;28;20030;-44
2022/03/27 09:07:35;;;;;;;12.13;7.15;;;;;;;;;;5032793;28;20052;-43
2022/03/27 09:10:06;;;;;;;10.30;6.80;;;;;;;;;;5032801;28;20063;-44
2022/03/27 09:12:32;;;;;;;14.30;8.07;;;;;;;;;;5032911;28;20096;-44
2022/03/27 09:14:58;;;;;;;13.63;7.90;;;;;;;;;;5031620;28;20025;-44
2022/03/27 09:17:23;;;;;;;24.73;9.73;;;;;;;;;;5032726;28;20527;-42
2022/03/27 09:19:50;;;;;;;9.52;6.57;;;;;;;;;;5032689;28;20025;-43
2022/03/27 09:22:15;;;;;;;16.70;8.27;;;;;;;;;;5032489;28;20022;-43
2022/03/27 09:24:42;;;;;;;26.42;7.43;;;;;;;;;;5031418;28;20087;-44
2022/03/27 09:27:07;;;;;;;17.75;7.35;;;;;;;;;;5032863;28;20029;-44
2022/03/27 09:29:52;;;;;;;24.73;7.53;;;;;;;;;;5032538;28;20438;-43
2022/03/27 09:32:28;;;;;;;16.75;7.68;;;;;;;;;;5032301;28;20040;-44
2022/03/27 09:34:57;;;;;;;11.75;8.02;;;;;;;;;;5030996;28;20036;-42
2022/03/27 09:37:34;;;;;;;13.27;6.70;;;;;;;;;;5031197;28;20021;-42
2022/03/27 09:40:00;;;;;;;10.27;6.93;;;;;;;;;;5032617;28;20029;-42
2022/03/27 09:42:26;;;;;;;16.23;7.40;;;;;;;;;;5032341;28;20580;-42
2022/03/27 09:45:11;;;;;;;25.70;7.13;;;;;;;;;;5032431;28;20058;-43
2022/03/27 09:47:37;;;;;;;14.38;7.28;;;;;;;;;;5031794;28;20041;-41
2022/03/27 09:50:02;;;;;;;16.80;8.57;;;;;;;;;;5032509;28;20017;-41
2022/03/27 09:52:28;;;;;;;11.95;7.50;;;;;;;;;;5032284;28;20029;-44
2022/03/27 09:54:53;;;;;;;12.68;7.57;;;;;;;;;;5031828;28;20069;-44
2022/03/27 09:57:20;;;;;;;16.63;8.13;;;;;;;;;;5033782;28;20038;-43
2022/03/27 09:59:46;;;;;;;12.10;7.85;;;;;;;;;;5035520;28;20064;-41
2022/03/27 10:02:19;;;;;;;10.02;6.93;;;;;;;;;;5034961;28;20097;-42
2022/03/27 10:05:14;;;;;;;15.27;7.53;;;;;;;;;;5035568;28;20124;-41
2022/03/27 10:07:41;;;;;;;19.10;8.13;;;;;;;;;;5035153;28;20111;-41
2022/03/27 10:10:08;;;;;;;18.25;7.40;;;;;;;;;;5035631;28;20416;-39
2022/03/27 10:12:34;;;;;;;12.60;7.57;;;;;;;;;;5034190;28;20017;-38
2022/03/27 10:15:07;;;;;;;10.98;5.43;;;;;;;;;;5034422;28;20041;-38
2022/03/27 10:17:33;;;;;;;15.38;7.07;;;;;;;;;;5034362;28;20021;-38
2022/03/27 10:20:08;;;;;;;11.50;5.97;;;;;;;;;;5035360;28;20025;-39
2022/03/27 10:22:37;;;;;;;16.00;7.43;;;;;;;;;;5035297;28;20028;-40
2022/03/27 10:25:03;;;;;;;14.35;8.18;;;;;;;;;;5035309;28;20052;-42
2022/03/27 10:27:30;;;;;;;16.20;7.97;;;;;;;;;;5034955;28;20021;-41
2022/03/27 10:29:56;;;;;;;16.35;7.68;;;;;;;;;;5035393;28;20021;-42
2022/03/27 10:32:22;;;;;;;14.45;7.10;;;;;;;;;;5034012;28;20132;-43
2022/03/27 10:34:56;;;;;;;17.40;8.40;;;;;;;;;;5034073;28;20072;-41
2022/03/27 10:37:21;;;;;;;17.73;7.32;;;;;;;;;;5035503;28;20033;-42
2022/03/27 10:39:53;;;;;;;15.97;9.10;;;;;;;;;;5033325;28;20032;-42
2022/03/27 10:42:30;;;;;;;11.77;7.28;;;;;;;;;;5033534;28;20247;-42
2022/03/27 10:45:09;;;;;;;17.35;8.40;;;;;;;;;;5033527;28;20033;-42
2022/03/27 10:47:35;;;;;;;12.75;7.75;;;;;;;;;;5033861;28;20037;-41
2022/03/27 10:50:00;;;;;;;14.75;8.57;;;;;;;;;;5033410;28;20029;-42
2022/03/27 10:52:26;;;;;;;16.00;7.70;;;;;;;;;;5032468;28;20026;-42
2022/03/27 10:55:02;;;;;;;12.95;8.15;;;;;;;;;;5034746;28;20283;-41
2022/03/27 10:57:28;;;;;;;11.70;7.82;;;;;;;;;;5035046;28;20029;-41
2022/03/27 10:59:54;;;;;;;18.35;8.25;;;;;;;;;;5034935;28;20053;-41
2022/03/27 11:02:39;;;;;;;11.40;7.30;;;;;;;;;;5034900;28;20110;-42
2022/03/27 11:05:04;;;;;;;11.88;7.30;;;;;;;;;;5034640;28;20389;-42
2022/03/27 11:07:30;;;;;;;16.40;7.75;;;;;;;;;;5034683;28;20031;-41
2022/03/27 11:09:55;;;;;;;12.60;7.57;;;;;;;;;;5034767;28;20132;-41
2022/03/27 11:12:28;;;;;;;10.60;7.03;;;;;;;;;;5034560;28;20017;-41
2022/03/27 11:14:53;;;;;;;11.70;7.57;;;;;;;;;;5034600;28;20247;-42
2022/03/27 11:17:37;;;;;;;14.02;6.60;;;;;;;;;;5034385;28;20018;-43
2022/03/27 11:20:26;;;;;;;12.35;6.65;;;;;;;;;;5034745;28;20022;-43
2022/03/27 11:22:52;;;;;;;12.55;7.30;;;;;;;;;;5033708;28;20038;-43
2022/03/27 11:25:29;;;;;;;13.27;6.60;;;;;;;;;;5034478;28;20017;-43
2022/03/27 11:27:57;;;;;;;12.63;6.75;;;;;;;;;;5034301;28;20027;-43
2022/03/27 11:30:23;;;;;;;11.65;6.50;;;;;;;;;;5033103;28;20021;-43
2022/03/27 11:33:07;;;;;;;11.50;7.07;;;;;;;;;;5034275;28;20552;-43
2022/03/27 11:35:32;;;;;;;12.88;7.57;;;;;;;;;;5034256;28;20419;-43
2022/03/27 11:38:16;;;;;;;12.70;6.63;;;;;;;;;;5034382;28;20072;-44
2022/03/27 11:40:41;;;;;;;14.20;6.75;;;;;;;;;;5034206;28;20017;-43
2022/03/27 11:43:25;;;;;;;18.35;6.53;;;;;;;;;;5034130;28;20030;-43
2022/03/27 11:45:51;;;;;;;12.07;7.70;;;;;;;;;;5034133;28;20031;-41
2022/03/27 11:48:16;;;;;;;15.98;6.05;;;;;;;;;;5033976;28;20017;-41
2022/03/27 11:50:42;;;;;;;10.88;7.28;;;;;;;;;;5033683;28;20105;-43
2022/03/27 11:53:07;;;;;;;12.52;7.30;;;;;;;;;;5033815;28;20045;-42
2022/03/27 11:55:33;;;;;;;12.52;5.93;;;;;;;;;;5033947;28;20017;-42
2022/03/27 11:57:59;;;;;;;14.35;7.43;;;;;;;;;;5033953;28;20124;-41
2022/03/27 12:00:34;;;;;;;14.27;7.40;;;;;;;;;;5033763;28;20465;-42
2022/03/27 12:02:59;;;;;;;12.73;6.72;;;;;;;;;;5033565;28;20104;-41
2022/03/27 12:05:32;;;;;;;11.27;7.63;;;;;;;;;;5033436;28;20105;-41
2022/03/27 12:07:57;;;;;;;11.32;6.95;;;;;;;;;;5033853;28;20033;-41
2022/03/27 12:10:24;;;;;;;13.40;6.43;;;;;;;;;;5033760;28;20043;-41
2022/03/27 12:12:56;;;;;;;10.65;6.82;;;;;;;;;;5033621;28;20021;-41
2022/03/27 12:15:22;;;;;;;12.77;7.60;;;;;;;;;;5033486;28;20468;-41
2022/03/27 12:17:47;;;;;;;13.00;6.68;;;;;;;;;;5033255;28;20083;-41
2022/03/27 12:20:13;;;;;;;11.05;7.38;;;;;;;;;;5033009;28;20021;-40
2022/03/27 12:22:39;;;;;;;10.75;7.18;;;;;;;;;;5033514;28;20051;-40
2022/03/27 12:25:11;;;;;;;11.90;6.13;;;;;;;;;;5033511;28;20411;-41
2022/03/27 12:30:29;;;;;;;10.68;6.40;;;;;;;;;;5032892;28;20396;-41
2022/03/27 12:32:55;;;;;;;13.45;6.75;;;;;;;;;;5033446;28;20017;-42
2022/03/27 12:35:22;;;;;;;15.02;7.13;;;;;;;;;;5031944;28;20048;-42
2022/03/27 12:37:47;;;;;;;9.65;6.35;;;;;;;;;;5031833;28;20018;-41
2022/03/27 12:40:13;;;;;;;12.83;6.63;;;;;;;;;;5033166;28;20413;-41
2022/03/27 12:42:46;;;;;;;11.15;6.20;;;;;;;;;;5032949;28;20251;-44
2022/03/27 12:45:13;;;;;;;12.77;6.38;;;;;;;;;;5032791;28;20048;-42
2022/03/27 12:47:39;;;;;;;10.73;6.47;;;;;;;;;;5033135;28;20527;-42
2022/03/27 12:50:05;;;;;;;15.77;6.55;;;;;;;;;;5033057;28;20021;-41
2022/03/27 12:52:31;;;;;;;12.32;6.50;;;;;;;;;;5032650;28;20425;-42
2022/03/27 12:55:05;;;;;;;11.88;7.00;;;;;;;;;;5033396;28;20113;-41
2022/03/27 12:57:56;;;;;;;12.60;6.65;;;;;;;;;;5032693;28;20025;-41
2022/03/27 13:00:25;;;;;;;13.32;6.75;;;;;;;;;;5032616;28;20543;-41
2022/03/27 13:03:07;;;;;;;17.23;7.18;;;;;;;;;;5032906;28;20036;-43
2022/03/27 13:05:32;;;;;;;17.35;7.15;;;;;;;;;;5032799;28;20057;-42
2022/03/27 13:07:58;;;;;;;10.95;6.28;;;;;;;;;;5032600;28;20056;-42
2022/03/27 13:10:24;;;;;;;12.55;6.07;;;;;;;;;;5033288;28;20100;-42
2022/03/27 13:12:57;;;;;;;8.73;5.05;;;;;;;;;;5032995;28;20017;-43
2022/03/27 13:15:42;;;;;;;7.95;4.85;;;;;;;;;;5033167;28;20033;-44
2022/03/27 13:18:18;;;;;;;11.48;6.65;;;;;;;;;;5031461;28;20025;-43
2022/03/27 13:20:46;;;;;;;8.30;5.80;;;;;;;;;;5032505;28;20030;-42
2022/03/27 13:23:11;;;;;;;11.63;6.28;;;;;;;;;;5032584;28;20034;-44
2022/03/27 13:25:37;;;;;;;20.30;6.05;;;;;;;;;;5032818;28;20076;-44
2022/03/27 13:28:03;;;;;;;12.75;6.90;;;;;;;;;;5032601;28;20041;-42
2022/03/27 13:30:29;;;;;;;9.75;6.00;;;;;;;;;;5034042;28;20100;-42
2022/03/27 13:32:56;;;;;;;10.45;6.35;;;;;;;;;;5036413;28;20053;-42
2022/03/27 13:35:21;;;;;;;8.63;5.65;;;;;;;;;;5036411;28;20021;-43
2022/03/27 13:37:47;;;;;;;9.27;6.10;;;;;;;;;;5036391;28;20487;-43
2022/03/27 13:40:13;;;;;;;10.75;6.03;;;;;;;;;;5036327;28;20239;-44
2022/03/27 13:45:22;;;;;;;11.95;6.57;;;;;;;;;;5036190;28;20044;-42
2022/03/27 13:47:47;;;;;;;11.88;6.03;;;;;;;;;;5036083;28;20014;-42
2022/03/27 13:50:13;;;;;;;11.40;5.72;;;;;;;;;;5036452;28;20101;-43
2022/03/27 13:52:38;;;;;;;9.25;6.47;;;;;;;;;;5036052;28;20021;-43
2022/03/27 13:55:05;;;;;;;10.18;6.55;;;;;;;;;;5036291;28;20024;-42
2022/03/27 13:57:31;;;;;;;9.57;6.13;;;;;;;;;;5036061;28;20476;-43
2022/03/27 13:59:56;;;;;;;13.23;6.32;;;;;;;;;;5036084;28;20085;-43
2022/03/27 14:02:21;;;;;;;11.75;5.82;;;;;;;;;;5035778;28;20456;-44
2022/03/27 14:04:47;;;;;;;11.60;6.80;;;;;;;;;;5035808;28;20029;-42
2022/03/27 14:07:12;;;;;;;11.13;7.40;;;;;;;;;;5035873;28;20238;-42
2022/03/27 14:09:40;;;;;;;20.50;6.32;;;;;;;;;;5035866;28;20060;-44
2022/03/27 14:12:05;;;;;;;10.80;6.72;;;;;;;;;;5036290;28;20027;-42
2022/03/27 14:14:31;;;;;;;14.18;6.68;;;;;;;;;;5035594;28;20108;-42
2022/03/27 14:16:56;;;;;;;12.50;6.30;;;;;;;;;;5035478;28;20053;-42
2022/03/27 14:19:22;;;;;;;13.90;7.45;;;;;;;;;;5035914;28;20060;-42
2022/03/27 14:21:47;;;;;;;11.88;6.43;;;;;;;;;;5036053;28;20108;-42
2022/03/27 14:24:12;;;;;;;11.30;6.57;;;;;;;;;;5035657;28;20079;-42
2022/03/27 14:26:38;;;;;;;14.50;6.13;;;;;;;;;;5035662;28;20021;-42
2022/03/27 14:29:03;;;;;;;12.88;7.22;;;;;;;;;;5035422;28;20362;-42
2022/03/27 14:31:28;;;;;;;15.57;6.15;;;;;;;;;;5035376;28;20385;-45
2022/03/27 14:33:54;;;;;;;12.65;6.15;;;;;;;;;;5035198;28;20435;-44
2022/03/27 14:36:19;;;;;;;15.90;6.35;;;;;;;;;;5035402;28;20028;-42
2022/03/27 14:38:45;;;;;;;10.02;6.32;;;;;;;;;;5035371;28;20036;-41
2022/03/27 14:41:10;;;;;;;10.88;6.68;;;;;;;;;;5034027;28;20025;-41